sensor_id;sensor_type;location;lat;lon;timestamp;P1;durP1;ratioP1;P2;durP2;ratioP2
37847;SDS011;23688;33.130;-117.188;2022-09-12T00:01:15;5.75;;;2.45;;
37847;SDS011;23688;33.130;-117.188;2022-09-12T00:03:44;5.90;;;2.42;;
37847;SDS011;23688;33.130;-117.188;2022-09-12T00:06:17;6.30;;;2.38;;
37847;SDS011;23688;33.130;-117.188;2022-09-12T00:08:49;8.75;;;2.40;;
37847;SDS011;23688;33.130;-117.188;2022-09-12T00:11:18;6.60;;;2.20;;
37847;SDS011;23688;33.130;-117.188;2022-09-12T00:13:44;5.28;;;2.33;;
37847;SDS011;23688;33.130;-117.188;2022-09-12T00:16:15;7.90;;;2.67;;
37847;SDS011;23688;33.130;-117.188;2022-09-12T00:18:44;8.90;;;2.15;;
37847;SDS011;23688;33.130;-117.188;2022-09-12T00:21:11;10.55;;;2.50;;
37847;SDS011;23688;33.130;-117.188;2022-09-12T00:23:40;5.70;;;2.40;;
37847;SDS011;23688;33.130;-117.188;2022-09-12T00:26:06;5.65;;;1.90;;
37847;SDS011;23688;33.130;-117.188;2022-09-12T00:28:35;6.40;;;2.05;;
37847;SDS011;23688;33.130;-117.188;2022-09-12T00:31:04;8.50;;;2.67;;
37847;SDS011;23688;33.130;-117.188;2022-09-12T00:33:33;7.10;;;2.30;;
37847;SDS011;23688;33.130;-117.188;2022-09-12T00:36:03;10.07;;;3.03;;
37847;SDS011;23688;33.130;-117.188;2022-09-12T00:38:31;7.15;;;2.45;;
37847;SDS011;23688;33.130;-117.188;2022-09-12T00:40:58;6.80;;;2.70;;
37847;SDS011;23688;33.130;-117.188;2022-09-12T00:48:53;6.55;;;3.13;;
37847;SDS011;23688;33.130;-117.188;2022-09-12T00:51:27;4.47;;;2.17;;
37847;SDS011;23688;33.130;-117.188;2022-09-12T00:53:57;11.27;;;3.42;;
37847;SDS011;23688;33.130;-117.188;2022-09-12T00:56:27;4.75;;;2.28;;
37847;SDS011;23688;33.130;-117.188;2022-09-12T00:58:59;8.35;;;2.40;;
37847;SDS011;23688;33.130;-117.188;2022-09-12T01:01:36;8.07;;;2.80;;
37847;SDS011;23688;33.130;-117.188;2022-09-12T01:04:04;8.95;;;2.75;;
37847;SDS011;23688;33.130;-117.188;2022-09-12T01:06:41;7.32;;;2.67;;
37847;SDS011;23688;33.130;-117.188;2022-09-12T01:09:09;5.30;;;2.63;;
37847;SDS011;23688;33.130;-117.188;2022-09-12T01:11:39;7.65;;;2.40;;
37847;SDS011;23688;33.130;-117.188;2022-09-12T01:14:10;6.60;;;2.85;;
37847;SDS011;23688;33.130;-117.188;2022-09-12T01:16:38;4.35;;;2.25;;
37847;SDS011;23688;33.130;-117.188;2022-09-12T01:21:47;8.68;;;2.58;;
37847;SDS011;23688;33.130;-117.188;2022-09-12T01:36:04;7.80;;;2.33;;
37847;SDS011;23688;33.130;-117.188;2022-09-12T01:41:41;10.18;;;2.63;;
37847;SDS011;23688;33.130;-117.188;2022-09-12T01:47:17;6.35;;;2.63;;
37847;SDS011;23688;33.130;-117.188;2022-09-12T01:52:47;7.13;;;2.55;;
37847;SDS011;23688;33.130;-117.188;2022-09-12T01:55:20;11.60;;;3.10;;
37847;SDS011;23688;33.130;-117.188;2022-09-12T02:00:34;7.68;;;2.60;;
37847;SDS011;23688;33.130;-117.188;2022-09-12T02:03:11;7.63;;;2.58;;
37847;SDS011;23688;33.130;-117.188;2022-09-12T02:08:39;4.50;;;2.55;;
37847;SDS011;23688;33.130;-117.188;2022-09-12T02:11:28;10.02;;;2.55;;
37847;SDS011;23688;33.130;-117.188;2022-09-12T02:14:20;5.47;;;2.63;;
37847;SDS011;23688;33.130;-117.188;2022-09-12T02:17:12;8.38;;;2.72;;
37847;SDS011;23688;33.130;-117.188;2022-09-12T02:20:01;8.95;;;3.05;;
37847;SDS011;23688;33.130;-117.188;2022-09-12T02:22:34;6.20;;;2.42;;
37847;SDS011;23688;33.130;-117.188;2022-09-12T02:25:03;9.32;;;2.35;;
37847;SDS011;23688;33.130;-117.188;2022-09-12T02:27:34;6.22;;;2.63;;
37847;SDS011;23688;33.130;-117.188;2022-09-12T02:30:03;5.68;;;2.20;;
37847;SDS011;23688;33.130;-117.188;2022-09-12T02:32:37;6.13;;;2.20;;
37847;SDS011;23688;33.130;-117.188;2022-09-12T02:38:10;7.38;;;2.60;;
37847;SDS011;23688;33.130;-117.188;2022-09-12T02:43:13;6.57;;;2.13;;
37847;SDS011;23688;33.130;-117.188;2022-09-12T02:45:40;9.50;;;2.33;;
37847;SDS011;23688;33.130;-117.188;2022-09-12T02:48:18;6.65;;;2.72;;
37847;SDS011;23688;33.130;-117.188;2022-09-12T02:50:49;8.93;;;2.65;;
37847;SDS011;23688;33.130;-117.188;2022-09-12T02:53:15;7.30;;;2.47;;
37847;SDS011;23688;33.130;-117.188;2022-09-12T02:55:44;6.53;;;2.58;;
37847;SDS011;23688;33.130;-117.188;2022-09-12T02:58:11;8.23;;;1.77;;
37847;SDS011;23688;33.130;-117.188;2022-09-12T03:14:59;7.35;;;2.05;;
37847;SDS011;23688;33.130;-117.188;2022-09-12T03:20:09;5.25;;;2.45;;
37847;SDS011;23688;33.130;-117.188;2022-09-12T03:25:15;7.90;;;2.85;;
37847;SDS011;23688;33.130;-117.188;2022-09-12T03:30:30;5.30;;;2.17;;
37847;SDS011;23688;33.130;-117.188;2022-09-12T03:33:02;10.48;;;2.10;;
37847;SDS011;23688;33.130;-117.188;2022-09-12T03:35:28;5.47;;;2.30;;
37847;SDS011;23688;33.130;-117.188;2022-09-12T03:37:55;10.57;;;2.08;;
37847;SDS011;23688;33.130;-117.188;2022-09-12T03:40:21;5.68;;;2.30;;
37847;SDS011;23688;33.130;-117.188;2022-09-12T03:42:47;7.68;;;2.38;;
37847;SDS011;23688;33.130;-117.188;2022-09-12T03:45:14;5.95;;;2.35;;
37847;SDS011;23688;33.130;-117.188;2022-09-12T03:47:40;6.50;;;2.15;;
37847;SDS011;23688;33.130;-117.188;2022-09-12T03:50:07;12.25;;;2.20;;
37847;SDS011;23688;33.130;-117.188;2022-09-12T03:52:34;10.18;;;2.65;;
37847;SDS011;23688;33.130;-117.188;2022-09-12T03:55:00;8.10;;;2.00;;
37847;SDS011;23688;33.130;-117.188;2022-09-12T03:57:27;15.57;;;3.80;;
37847;SDS011;23688;33.130;-117.188;2022-09-12T03:59:54;5.72;;;1.35;;
37847;SDS011;23688;33.130;-117.188;2022-09-12T04:02:20;3.72;;;1.55;;
37847;SDS011;23688;33.130;-117.188;2022-09-12T04:04:47;8.80;;;1.95;;
37847;SDS011;23688;33.130;-117.188;2022-09-12T04:07:14;3.22;;;1.58;;
37847;SDS011;23688;33.130;-117.188;2022-09-12T04:09:41;5.95;;;2.30;;
37847;SDS011;23688;33.130;-117.188;2022-09-12T04:12:07;5.00;;;1.70;;
37847;SDS011;23688;33.130;-117.188;2022-09-12T04:14:34;6.18;;;1.88;;
37847;SDS011;23688;33.130;-117.188;2022-09-12T04:17:00;13.35;;;1.80;;
37847;SDS011;23688;33.130;-117.188;2022-09-12T04:19:27;6.00;;;2.40;;
37847;SDS011;23688;33.130;-117.188;2022-09-12T04:21:53;9.38;;;2.10;;
37847;SDS011;23688;33.130;-117.188;2022-09-12T04:24:20;7.10;;;1.50;;
37847;SDS011;23688;33.130;-117.188;2022-09-12T04:26:47;3.85;;;1.80;;
37847;SDS011;23688;33.130;-117.188;2022-09-12T04:29:14;4.22;;;1.48;;
37847;SDS011;23688;33.130;-117.188;2022-09-12T04:31:40;6.13;;;1.60;;
37847;SDS011;23688;33.130;-117.188;2022-09-12T04:34:07;6.78;;;1.90;;
37847;SDS011;23688;33.130;-117.188;2022-09-12T04:36:34;10.50;;;1.88;;
37847;SDS011;23688;33.130;-117.188;2022-09-12T04:39:01;5.15;;;1.60;;
37847;SDS011;23688;33.130;-117.188;2022-09-12T04:41:30;10.60;;;2.80;;
37847;SDS011;23688;33.130;-117.188;2022-09-12T04:44:01;4.07;;;1.58;;
37847;SDS011;23688;33.130;-117.188;2022-09-12T04:46:30;6.53;;;1.73;;
37847;SDS011;23688;33.130;-117.188;2022-09-12T04:49:02;8.52;;;1.70;;
37847;SDS011;23688;33.130;-117.188;2022-09-12T04:51:29;3.42;;;1.60;;
37847;SDS011;23688;33.130;-117.188;2022-09-12T04:54:01;6.78;;;2.25;;
37847;SDS011;23688;33.130;-117.188;2022-09-12T04:56:30;4.90;;;1.90;;
37847;SDS011;23688;33.130;-117.188;2022-09-12T04:58:59;8.82;;;2.17;;
37847;SDS011;23688;33.130;-117.188;2022-09-12T05:01:26;6.43;;;2.40;;
37847;SDS011;23688;33.130;-117.188;2022-09-12T05:03:54;5.40;;;2.05;;
37847;SDS011;23688;33.130;-117.188;2022-09-12T05:06:23;6.27;;;2.00;;
37847;SDS011;23688;33.130;-117.188;2022-09-12T05:08:51;7.50;;;2.30;;
37847;SDS011;23688;33.130;-117.188;2022-09-12T05:11:20;8.27;;;1.83;;
37847;SDS011;23688;33.130;-117.188;2022-09-12T05:13:48;11.80;;;2.45;;
37847;SDS011;23688;33.130;-117.188;2022-09-12T05:16:17;7.28;;;2.17;;
37847;SDS011;23688;33.130;-117.188;2022-09-12T05:18:46;5.13;;;2.13;;
37847;SDS011;23688;33.130;-117.188;2022-09-12T05:21:17;5.32;;;1.98;;
37847;SDS011;23688;33.130;-117.188;2022-09-12T05:23:49;5.78;;;2.33;;
37847;SDS011;23688;33.130;-117.188;2022-09-12T05:26:21;6.93;;;2.13;;
37847;SDS011;23688;33.130;-117.188;2022-09-12T05:28:49;7.53;;;2.33;;
37847;SDS011;23688;33.130;-117.188;2022-09-12T05:31:21;6.97;;;2.30;;
37847;SDS011;23688;33.130;-117.188;2022-09-12T05:33:51;8.27;;;2.20;;
37847;SDS011;23688;33.130;-117.188;2022-09-12T05:36:20;9.05;;;2.25;;
37847;SDS011;23688;33.130;-117.188;2022-09-12T05:38:48;6.97;;;2.35;;
37847;SDS011;23688;33.130;-117.188;2022-09-12T05:41:15;9.68;;;2.85;;
37847;SDS011;23688;33.130;-117.188;2022-09-12T05:43:43;9.63;;;2.25;;
37847;SDS011;23688;33.130;-117.188;2022-09-12T05:46:11;9.00;;;2.33;;
37847;SDS011;23688;33.130;-117.188;2022-09-12T05:48:42;9.05;;;2.00;;
37847;SDS011;23688;33.130;-117.188;2022-09-12T05:51:14;9.30;;;2.42;;
37847;SDS011;23688;33.130;-117.188;2022-09-12T05:53:44;4.13;;;1.77;;
37847;SDS011;23688;33.130;-117.188;2022-09-12T05:56:12;4.45;;;1.88;;
37847;SDS011;23688;33.130;-117.188;2022-09-12T05:58:43;9.52;;;2.65;;
37847;SDS011;23688;33.130;-117.188;2022-09-12T06:01:15;12.65;;;2.67;;
37847;SDS011;23688;33.130;-117.188;2022-09-12T06:03:43;6.93;;;2.05;;
37847;SDS011;23688;33.130;-117.188;2022-09-12T06:06:12;5.90;;;2.47;;
37847;SDS011;23688;33.130;-117.188;2022-09-12T06:08:40;12.80;;;2.75;;
37847;SDS011;23688;33.130;-117.188;2022-09-12T06:11:10;6.10;;;2.03;;
37847;SDS011;23688;33.130;-117.188;2022-09-12T06:13:42;6.05;;;2.15;;
37847;SDS011;23688;33.130;-117.188;2022-09-12T06:16:10;3.08;;;1.73;;
37847;SDS011;23688;33.130;-117.188;2022-09-12T06:18:38;6.70;;;2.10;;
37847;SDS011;23688;33.130;-117.188;2022-09-12T06:21:09;3.95;;;1.70;;
37847;SDS011;23688;33.130;-117.188;2022-09-12T06:23:38;9.38;;;1.60;;
37847;SDS011;23688;33.130;-117.188;2022-09-12T06:26:07;6.25;;;2.15;;
37847;SDS011;23688;33.130;-117.188;2022-09-12T06:28:35;6.65;;;2.03;;
37847;SDS011;23688;33.130;-117.188;2022-09-12T06:31:04;7.25;;;1.85;;
37847;SDS011;23688;33.130;-117.188;2022-09-12T06:33:42;7.53;;;2.10;;
37847;SDS011;23688;33.130;-117.188;2022-09-12T06:36:11;7.93;;;2.13;;
37847;SDS011;23688;33.130;-117.188;2022-09-12T06:38:40;7.50;;;1.83;;
37847;SDS011;23688;33.130;-117.188;2022-09-12T06:41:08;8.52;;;2.08;;
37847;SDS011;23688;33.130;-117.188;2022-09-12T06:43:42;5.65;;;1.95;;
37847;SDS011;23688;33.130;-117.188;2022-09-12T06:46:09;5.50;;;1.63;;
37847;SDS011;23688;33.130;-117.188;2022-09-12T06:48:37;8.88;;;2.03;;
37847;SDS011;23688;33.130;-117.188;2022-09-12T06:51:05;5.80;;;1.40;;
37847;SDS011;23688;33.130;-117.188;2022-09-12T06:53:34;4.57;;;1.60;;
37847;SDS011;23688;33.130;-117.188;2022-09-12T06:56:08;8.07;;;1.60;;
37847;SDS011;23688;33.130;-117.188;2022-09-12T06:58:36;8.50;;;1.77;;
37847;SDS011;23688;33.130;-117.188;2022-09-12T07:01:04;5.75;;;1.55;;
37847;SDS011;23688;33.130;-117.188;2022-09-12T07:03:33;5.25;;;1.30;;
37847;SDS011;23688;33.130;-117.188;2022-09-12T07:06:13;5.53;;;1.50;;
37847;SDS011;23688;33.130;-117.188;2022-09-12T07:08:41;3.67;;;1.30;;
37847;SDS011;23688;33.130;-117.188;2022-09-12T07:11:20;3.90;;;1.42;;
37847;SDS011;23688;33.130;-117.188;2022-09-12T07:13:49;3.47;;;1.55;;
37847;SDS011;23688;33.130;-117.188;2022-09-12T07:16:17;6.10;;;1.77;;
37847;SDS011;23688;33.130;-117.188;2022-09-12T07:18:48;6.03;;;1.73;;
37847;SDS011;23688;33.130;-117.188;2022-09-12T07:21:16;5.55;;;1.60;;
37847;SDS011;23688;33.130;-117.188;2022-09-12T07:23:42;7.45;;;1.52;;
37847;SDS011;23688;33.130;-117.188;2022-09-12T07:26:10;5.40;;;1.80;;
37847;SDS011;23688;33.130;-117.188;2022-09-12T07:28:38;4.78;;;1.52;;
37847;SDS011;23688;33.130;-117.188;2022-09-12T07:31:09;6.70;;;1.98;;
37847;SDS011;23688;33.130;-117.188;2022-09-12T07:33:40;6.50;;;1.60;;
37847;SDS011;23688;33.130;-117.188;2022-09-12T07:36:09;6.18;;;1.67;;
37847;SDS011;23688;33.130;-117.188;2022-09-12T07:38:37;7.78;;;1.95;;
37847;SDS011;23688;33.130;-117.188;2022-09-12T07:41:21;4.32;;;1.80;;
37847;SDS011;23688;33.130;-117.188;2022-09-12T07:43:52;6.93;;;2.40;;
37847;SDS011;23688;33.130;-117.188;2022-09-12T07:46:21;3.60;;;1.40;;
37847;SDS011;23688;33.130;-117.188;2022-09-12T07:48:51;3.65;;;1.73;;
37847;SDS011;23688;33.130;-117.188;2022-09-12T07:51:18;2.95;;;1.70;;
37847;SDS011;23688;33.130;-117.188;2022-09-12T07:53:48;8.93;;;1.95;;
37847;SDS011;23688;33.130;-117.188;2022-09-12T07:56:15;5.78;;;1.85;;
37847;SDS011;23688;33.130;-117.188;2022-09-12T07:58:42;4.30;;;1.70;;
37847;SDS011;23688;33.130;-117.188;2022-09-12T08:01:16;6.28;;;1.90;;
37847;SDS011;23688;33.130;-117.188;2022-09-12T08:03:45;8.43;;;2.15;;
37847;SDS011;23688;33.130;-117.188;2022-09-12T08:06:13;5.25;;;1.98;;
37847;SDS011;23688;33.130;-117.188;2022-09-12T08:08:44;5.45;;;1.85;;
37847;SDS011;23688;33.130;-117.188;2022-09-12T08:11:12;9.73;;;1.95;;
37847;SDS011;23688;33.130;-117.188;2022-09-12T08:13:41;5.03;;;2.00;;
37847;SDS011;23688;33.130;-117.188;2022-09-12T08:16:13;8.93;;;2.33;;
37847;SDS011;23688;33.130;-117.188;2022-09-12T08:18:42;6.50;;;1.92;;
37847;SDS011;23688;33.130;-117.188;2022-09-12T08:21:13;7.60;;;2.35;;
37847;SDS011;23688;33.130;-117.188;2022-09-12T08:23:53;8.23;;;1.88;;
37847;SDS011;23688;33.130;-117.188;2022-09-12T08:26:21;6.88;;;2.05;;
37847;SDS011;23688;33.130;-117.188;2022-09-12T08:28:48;7.95;;;2.22;;
37847;SDS011;23688;33.130;-117.188;2022-09-12T08:31:16;9.05;;;2.00;;
37847;SDS011;23688;33.130;-117.188;2022-09-12T08:33:44;7.35;;;2.40;;
37847;SDS011;23688;33.130;-117.188;2022-09-12T08:36:11;7.50;;;2.00;;
37847;SDS011;23688;33.130;-117.188;2022-09-12T08:38:42;12.43;;;2.47;;
37847;SDS011;23688;33.130;-117.188;2022-09-12T08:41:28;6.13;;;2.00;;
37847;SDS011;23688;33.130;-117.188;2022-09-12T08:44:03;5.82;;;2.00;;
37847;SDS011;23688;33.130;-117.188;2022-09-12T08:49:38;11.15;;;2.50;;
37847;SDS011;23688;33.130;-117.188;2022-09-12T08:55:01;5.93;;;1.98;;
37847;SDS011;23688;33.130;-117.188;2022-09-12T08:57:31;6.75;;;2.42;;
37847;SDS011;23688;33.130;-117.188;2022-09-12T08:59:57;8.52;;;2.45;;
37847;SDS011;23688;33.130;-117.188;2022-09-12T09:02:40;6.40;;;2.60;;
37847;SDS011;23688;33.130;-117.188;2022-09-12T09:06:04;10.88;;;2.70;;
37847;SDS011;23688;33.130;-117.188;2022-09-12T09:11:25;8.18;;;2.55;;
37847;SDS011;23688;33.130;-117.188;2022-09-12T09:17:14;9.02;;;3.05;;
37847;SDS011;23688;33.130;-117.188;2022-09-12T09:20:09;6.20;;;2.60;;
37847;SDS011;23688;33.130;-117.188;2022-09-12T09:22:49;5.32;;;2.13;;
37847;SDS011;23688;33.130;-117.188;2022-09-12T09:25:48;4.68;;;2.28;;
37847;SDS011;23688;33.130;-117.188;2022-09-12T09:28:35;8.70;;;2.03;;
37847;SDS011;23688;33.130;-117.188;2022-09-12T09:31:14;4.35;;;1.80;;
37847;SDS011;23688;33.130;-117.188;2022-09-12T09:33:42;5.32;;;2.20;;
37847;SDS011;23688;33.130;-117.188;2022-09-12T09:44:36;6.15;;;2.10;;
37847;SDS011;23688;33.130;-117.188;2022-09-12T09:47:03;6.63;;;2.58;;
37847;SDS011;23688;33.130;-117.188;2022-09-12T09:49:31;9.27;;;3.05;;
37847;SDS011;23688;33.130;-117.188;2022-09-12T09:51:59;7.68;;;2.80;;
37847;SDS011;23688;33.130;-117.188;2022-09-12T09:54:39;6.05;;;2.15;;
37847;SDS011;23688;33.130;-117.188;2022-09-12T10:11:09;6.65;;;2.42;;
37847;SDS011;23688;33.130;-117.188;2022-09-12T10:13:41;9.07;;;2.35;;
37847;SDS011;23688;33.130;-117.188;2022-09-12T10:18:46;7.80;;;2.78;;
37847;SDS011;23688;33.130;-117.188;2022-09-12T10:24:23;6.28;;;2.53;;
37847;SDS011;23688;33.130;-117.188;2022-09-12T10:26:52;4.32;;;2.40;;
37847;SDS011;23688;33.130;-117.188;2022-09-12T10:29:24;4.80;;;2.72;;
37847;SDS011;23688;33.130;-117.188;2022-09-12T10:31:57;11.75;;;3.78;;
37847;SDS011;23688;33.130;-117.188;2022-09-12T10:34:34;4.30;;;1.90;;
37847;SDS011;23688;33.130;-117.188;2022-09-12T10:37:14;7.30;;;2.80;;
37847;SDS011;23688;33.130;-117.188;2022-09-12T10:39:53;15.90;;;3.80;;
37847;SDS011;23688;33.130;-117.188;2022-09-12T10:45:54;9.50;;;3.17;;
37847;SDS011;23688;33.130;-117.188;2022-09-12T10:50:58;5.20;;;2.38;;
37847;SDS011;23688;33.130;-117.188;2022-09-12T10:53:26;12.15;;;3.55;;
37847;SDS011;23688;33.130;-117.188;2022-09-12T10:56:07;8.93;;;3.05;;
37847;SDS011;23688;33.130;-117.188;2022-09-12T10:59:39;7.72;;;3.35;;
37847;SDS011;23688;33.130;-117.188;2022-09-12T11:12:35;7.22;;;3.38;;
37847;SDS011;23688;33.130;-117.188;2022-09-12T11:34:27;17.77;;;7.00;;
37847;SDS011;23688;33.130;-117.188;2022-09-12T11:37:08;14.75;;;6.82;;
37847;SDS011;23688;33.130;-117.188;2022-09-12T11:39:42;14.27;;;6.10;;
37847;SDS011;23688;33.130;-117.188;2022-09-12T11:42:14;13.32;;;6.30;;
37847;SDS011;23688;33.130;-117.188;2022-09-12T11:44:45;16.88;;;6.82;;
37847;SDS011;23688;33.130;-117.188;2022-09-12T11:47:18;14.82;;;6.90;;
37847;SDS011;23688;33.130;-117.188;2022-09-12T11:49:46;18.13;;;6.75;;
37847;SDS011;23688;33.130;-117.188;2022-09-12T11:52:17;19.10;;;8.63;;
37847;SDS011;23688;33.130;-117.188;2022-09-12T12:00:21;14.98;;;8.07;;
37847;SDS011;23688;33.130;-117.188;2022-09-12T12:05:38;14.35;;;7.38;;
37847;SDS011;23688;33.130;-117.188;2022-09-12T12:08:06;19.38;;;7.93;;
37847;SDS011;23688;33.130;-117.188;2022-09-12T12:15:47;20.23;;;9.23;;
37847;SDS011;23688;33.130;-117.188;2022-09-12T12:18:27;15.48;;;8.23;;
37847;SDS011;23688;33.130;-117.188;2022-09-12T12:20:55;17.80;;;9.48;;
37847;SDS011;23688;33.130;-117.188;2022-09-12T12:23:41;20.05;;;8.50;;
37847;SDS011;23688;33.130;-117.188;2022-09-12T12:36:54;19.00;;;9.98;;
37847;SDS011;23688;33.130;-117.188;2022-09-12T12:49:48;16.33;;;8.88;;
37847;SDS011;23688;33.130;-117.188;2022-09-12T12:52:21;14.45;;;7.70;;
37847;SDS011;23688;33.130;-117.188;2022-09-12T12:54:49;15.47;;;8.07;;
37847;SDS011;23688;33.130;-117.188;2022-09-12T12:59:52;18.27;;;9.43;;
37847;SDS011;23688;33.130;-117.188;2022-09-12T13:04:57;25.20;;;9.88;;
37847;SDS011;23688;33.130;-117.188;2022-09-12T13:07:29;14.05;;;8.90;;
37847;SDS011;23688;33.130;-117.188;2022-09-12T13:12:34;19.42;;;8.40;;
37847;SDS011;23688;33.130;-117.188;2022-09-12T13:18:12;12.57;;;6.70;;
37847;SDS011;23688;33.130;-117.188;2022-09-12T13:20:50;14.05;;;7.18;;
37847;SDS011;23688;33.130;-117.188;2022-09-12T13:23:25;14.75;;;7.32;;
37847;SDS011;23688;33.130;-117.188;2022-09-12T13:25:54;15.77;;;6.82;;
37847;SDS011;23688;33.130;-117.188;2022-09-12T13:28:23;13.65;;;7.38;;
37847;SDS011;23688;33.130;-117.188;2022-09-12T13:33:36;12.18;;;7.25;;
37847;SDS011;23688;33.130;-117.188;2022-09-12T13:47:43;16.23;;;6.97;;
37847;SDS011;23688;33.130;-117.188;2022-09-12T13:50:24;21.15;;;8.55;;
37847;SDS011;23688;33.130;-117.188;2022-09-12T13:53:02;14.75;;;9.05;;
37847;SDS011;23688;33.130;-117.188;2022-09-12T13:55:32;15.40;;;7.88;;
37847;SDS011;23688;33.130;-117.188;2022-09-12T13:58:06;16.63;;;8.30;;
37847;SDS011;23688;33.130;-117.188;2022-09-12T14:00:43;17.70;;;8.35;;
37847;SDS011;23688;33.130;-117.188;2022-09-12T14:03:28;15.50;;;7.72;;
37847;SDS011;23688;33.130;-117.188;2022-09-12T14:06:15;15.00;;;7.72;;
37847;SDS011;23688;33.130;-117.188;2022-09-12T14:08:44;17.55;;;8.55;;
37847;SDS011;23688;33.130;-117.188;2022-09-12T14:11:45;16.60;;;8.00;;
37847;SDS011;23688;33.130;-117.188;2022-09-12T14:14:05;9.82;;;7.45;;
37847;SDS011;23688;33.130;-117.188;2022-09-12T14:19:09;12.68;;;7.40;;
37847;SDS011;23688;33.130;-117.188;2022-09-12T14:21:36;11.88;;;7.25;;
37847;SDS011;23688;33.130;-117.188;2022-09-12T14:24:04;15.82;;;6.57;;
37847;SDS011;23688;33.130;-117.188;2022-09-12T14:26:33;13.77;;;7.18;;
37847;SDS011;23688;33.130;-117.188;2022-09-12T14:29:03;12.52;;;6.40;;
37847;SDS011;23688;33.130;-117.188;2022-09-12T14:31:33;14.75;;;6.55;;
37847;SDS011;23688;33.130;-117.188;2022-09-12T14:34:09;15.35;;;6.60;;
37847;SDS011;23688;33.130;-117.188;2022-09-12T14:36:51;19.30;;;7.05;;
37847;SDS011;23688;33.130;-117.188;2022-09-12T14:39:36;12.55;;;7.32;;
37847;SDS011;23688;33.130;-117.188;2022-09-12T14:42:19;18.17;;;7.88;;
37847;SDS011;23688;33.130;-117.188;2022-09-12T14:44:51;17.23;;;7.35;;
37847;SDS011;23688;33.130;-117.188;2022-09-12T14:47:20;9.43;;;6.65;;
37847;SDS011;23688;33.130;-117.188;2022-09-12T14:49:49;13.52;;;6.15;;
37847;SDS011;23688;33.130;-117.188;2022-09-12T14:52:26;11.02;;;6.47;;
37847;SDS011;23688;33.130;-117.188;2022-09-12T14:54:58;18.02;;;6.85;;
37847;SDS011;23688;33.130;-117.188;2022-09-12T15:00:30;11.40;;;5.75;;
37847;SDS011;23688;33.130;-117.188;2022-09-12T15:02:52;11.25;;;5.53;;
37847;SDS011;23688;33.130;-117.188;2022-09-12T15:05:20;12.57;;;6.07;;
37847;SDS011;23688;33.130;-117.188;2022-09-12T15:10:30;10.35;;;5.55;;
37847;SDS011;23688;33.130;-117.188;2022-09-12T15:13:09;14.02;;;6.10;;
37847;SDS011;23688;33.130;-117.188;2022-09-12T15:15:42;14.45;;;6.25;;
37847;SDS011;23688;33.130;-117.188;2022-09-12T15:18:10;11.70;;;5.60;;
37847;SDS011;23688;33.130;-117.188;2022-09-12T15:20:38;9.73;;;4.90;;
37847;SDS011;23688;33.130;-117.188;2022-09-12T15:23:28;9.52;;;5.10;;
37847;SDS011;23688;33.130;-117.188;2022-09-12T15:26:06;7.53;;;5.05;;
37847;SDS011;23688;33.130;-117.188;2022-09-12T15:28:32;8.88;;;5.20;;
37847;SDS011;23688;33.130;-117.188;2022-09-12T15:31:44;13.85;;;5.20;;
37847;SDS011;23688;33.130;-117.188;2022-09-12T15:33:54;16.20;;;6.00;;
37847;SDS011;23688;33.130;-117.188;2022-09-12T15:36:22;9.20;;;5.40;;
37847;SDS011;23688;33.130;-117.188;2022-09-12T15:38:49;11.90;;;6.20;;
37847;SDS011;23688;33.130;-117.188;2022-09-12T15:43:51;10.52;;;5.60;;
37847;SDS011;23688;33.130;-117.188;2022-09-12T15:46:17;11.68;;;5.68;;
37847;SDS011;23688;33.130;-117.188;2022-09-12T15:48:44;9.60;;;5.07;;
37847;SDS011;23688;33.130;-117.188;2022-09-12T15:51:17;12.35;;;5.30;;
37847;SDS011;23688;33.130;-117.188;2022-09-12T15:53:45;11.57;;;5.07;;
37847;SDS011;23688;33.130;-117.188;2022-09-12T15:56:16;12.48;;;5.05;;
37847;SDS011;23688;33.130;-117.188;2022-09-12T15:58:44;13.95;;;5.05;;
37847;SDS011;23688;33.130;-117.188;2022-09-12T16:01:12;12.43;;;5.68;;
37847;SDS011;23688;33.130;-117.188;2022-09-12T16:03:39;10.75;;;6.03;;
37847;SDS011;23688;33.130;-117.188;2022-09-12T16:06:06;10.95;;;6.30;;
37847;SDS011;23688;33.130;-117.188;2022-09-12T16:08:35;11.63;;;5.93;;
37847;SDS011;23688;33.130;-117.188;2022-09-12T16:11:08;13.00;;;6.90;;
37847;SDS011;23688;33.130;-117.188;2022-09-12T16:13:43;13.20;;;7.45;;
37847;SDS011;23688;33.130;-117.188;2022-09-12T16:16:09;13.85;;;7.18;;
37847;SDS011;23688;33.130;-117.188;2022-09-12T16:18:37;16.58;;;7.65;;
37847;SDS011;23688;33.130;-117.188;2022-09-12T16:21:04;18.88;;;7.43;;
37847;SDS011;23688;33.130;-117.188;2022-09-12T16:23:31;13.40;;;7.25;;
37847;SDS011;23688;33.130;-117.188;2022-09-12T16:25:57;19.33;;;7.75;;
37847;SDS011;23688;33.130;-117.188;2022-09-12T16:28:25;19.42;;;8.27;;
37847;SDS011;23688;33.130;-117.188;2022-09-12T16:30:55;14.10;;;6.60;;
37847;SDS011;23688;33.130;-117.188;2022-09-12T16:33:26;16.98;;;7.47;;
37847;SDS011;23688;33.130;-117.188;2022-09-12T16:36:27;16.85;;;7.20;;
37847;SDS011;23688;33.130;-117.188;2022-09-12T16:38:47;18.33;;;8.15;;
37847;SDS011;23688;33.130;-117.188;2022-09-12T16:41:16;12.45;;;6.72;;
37847;SDS011;23688;33.130;-117.188;2022-09-12T16:43:43;17.70;;;7.45;;
37847;SDS011;23688;33.130;-117.188;2022-09-12T16:46:11;16.40;;;7.60;;
37847;SDS011;23688;33.130;-117.188;2022-09-12T16:48:50;17.50;;;7.93;;
37847;SDS011;23688;33.130;-117.188;2022-09-12T16:51:18;16.73;;;7.55;;
37847;SDS011;23688;33.130;-117.188;2022-09-12T16:53:46;12.50;;;7.88;;
37847;SDS011;23688;33.130;-117.188;2022-09-12T16:56:13;14.95;;;7.28;;
37847;SDS011;23688;33.130;-117.188;2022-09-12T16:58:40;15.02;;;7.50;;
37847;SDS011;23688;33.130;-117.188;2022-09-12T17:01:08;15.07;;;7.95;;
37847;SDS011;23688;33.130;-117.188;2022-09-12T17:03:42;13.82;;;8.50;;
37847;SDS011;23688;33.130;-117.188;2022-09-12T17:06:13;15.38;;;7.80;;
37847;SDS011;23688;33.130;-117.188;2022-09-12T17:08:41;14.82;;;7.65;;
37847;SDS011;23688;33.130;-117.188;2022-09-12T17:11:11;13.52;;;7.50;;
37847;SDS011;23688;33.130;-117.188;2022-09-12T17:13:45;15.13;;;7.32;;
37847;SDS011;23688;33.130;-117.188;2022-09-12T17:16:16;14.10;;;8.25;;
37847;SDS011;23688;33.130;-117.188;2022-09-12T17:18:42;14.13;;;7.82;;
37847;SDS011;23688;33.130;-117.188;2022-09-12T17:21:09;16.35;;;8.52;;
37847;SDS011;23688;33.130;-117.188;2022-09-12T17:23:36;17.58;;;9.02;;
37847;SDS011;23688;33.130;-117.188;2022-09-12T17:26:03;15.05;;;8.07;;
37847;SDS011;23688;33.130;-117.188;2022-09-12T17:28:30;15.23;;;9.05;;
37847;SDS011;23688;33.130;-117.188;2022-09-12T17:30:58;14.18;;;7.72;;
37847;SDS011;23688;33.130;-117.188;2022-09-12T17:33:26;12.27;;;7.88;;
37847;SDS011;23688;33.130;-117.188;2022-09-12T17:35:53;18.98;;;8.30;;
37847;SDS011;23688;33.130;-117.188;2022-09-12T17:38:20;11.55;;;7.97;;
37847;SDS011;23688;33.130;-117.188;2022-09-12T17:40:47;13.60;;;6.88;;
37847;SDS011;23688;33.130;-117.188;2022-09-12T17:43:13;11.15;;;7.07;;
37847;SDS011;23688;33.130;-117.188;2022-09-12T17:45:40;15.23;;;6.78;;
37847;SDS011;23688;33.130;-117.188;2022-09-12T17:48:06;14.15;;;7.15;;
37847;SDS011;23688;33.130;-117.188;2022-09-12T17:50:36;14.25;;;7.40;;
37847;SDS011;23688;33.130;-117.188;2022-09-12T17:53:03;15.07;;;8.32;;
37847;SDS011;23688;33.130;-117.188;2022-09-12T17:55:33;12.93;;;6.05;;